createdAt,value
2024-02-09T00:00:33.065Z,100063.13
2024-02-09T00:03:01.507Z,100058.59
2024-02-09T00:05:30.114Z,100052.56
2024-02-09T00:08:01.855Z,100040.09
2024-02-09T00:10:28.982Z,100035.38
2024-02-09T00:12:56.871Z,100026.00
2024-02-09T00:15:26.338Z,100018.97
2024-02-09T00:17:53.087Z,100019.69
2024-02-09T00:20:22.263Z,100009.69
2024-02-09T00:25:17.170Z,100000.16
2024-02-09T00:27:44.661Z,100003.22
2024-02-09T00:30:11.979Z,100000.63
2024-02-09T00:32:38.888Z,99998.03
2024-02-09T00:35:05.979Z,99998.56
2024-02-09T00:37:33.211Z,99992.50
2024-02-09T00:40:00.191Z,99978.72
2024-02-09T00:42:27.020Z,99966.44
2024-02-09T00:44:53.772Z,99968.06
2024-02-09T00:47:23.672Z,99968.72
2024-02-09T00:49:50.792Z,99957.53
2024-02-09T00:52:17.799Z,99960.03
2024-02-09T00:54:44.621Z,99960.13
2024-02-09T00:57:11.412Z,99965.50
2024-02-09T00:59:40.370Z,99961.63
2024-02-09T01:02:08.370Z,99945.41
2024-02-09T01:04:36.350Z,99950.59
2024-02-09T01:07:05.211Z,99949.66
2024-02-09T01:09:34.850Z,99950.91
2024-02-09T01:12:26.257Z,99939.88
2024-02-09T01:15:11.591Z,99940.66
2024-02-09T01:17:58.452Z,99940.47
2024-02-09T01:20:43.902Z,99931.94
2024-02-09T01:23:29.436Z,99935.56
2024-02-09T01:26:14.563Z,99939.56
2024-02-09T01:28:59.987Z,99934.84
2024-02-09T01:31:45.144Z,99940.22
2024-02-09T01:34:30.285Z,99935.09
2024-02-09T01:37:16.022Z,99934.97
2024-02-09T01:40:01.475Z,99935.63
2024-02-09T01:42:47.433Z,99921.19
2024-02-09T01:45:32.522Z,99918.53
2024-02-09T01:48:19.635Z,99920.41
2024-02-09T01:51:05.143Z,99918.28
2024-02-09T01:53:51.371Z,99923.03
2024-02-09T01:56:36.881Z,99909.31
2024-02-09T01:59:22.579Z,99917.72
2024-02-09T02:02:09.288Z,99913.50
2024-02-09T02:04:54.601Z,99908.59
2024-02-09T02:07:42.609Z,99909.47
2024-02-09T02:10:28.100Z,99905.75
2024-02-09T02:13:13.521Z,99905.13
2024-02-09T02:15:58.732Z,99903.22
2024-02-09T02:18:44.181Z,99898.13
2024-02-09T02:21:29.534Z,99890.16
2024-02-09T02:24:17.732Z,99879.06
2024-02-09T02:27:02.952Z,99871.78
2024-02-09T02:29:52.996Z,99873.16
2024-02-09T02:32:38.449Z,99872.03
2024-02-09T02:35:24.362Z,99860.47
2024-02-09T02:38:09.594Z,99861.84
2024-02-09T02:40:54.778Z,99854.56
2024-02-09T02:43:21.490Z,99854.31
2024-02-09T02:45:49.805Z,99839.34
2024-02-09T02:48:35.046Z,99842.50
2024-02-09T02:51:20.493Z,99832.72
2024-02-09T02:54:05.783Z,99815.00
2024-02-09T02:56:51.044Z,99813.28
2024-02-09T02:59:36.382Z,99782.00
2024-02-09T03:02:29.322Z,99739.81
2024-02-09T03:04:56.187Z,99733.09
2024-02-09T03:07:50.696Z,99721.16
2024-02-09T03:10:11.179Z,99730.47
2024-02-09T03:12:40.912Z,99731.91
2024-02-09T03:15:12.560Z,99711.31
2024-02-09T03:17:40.413Z,99709.16
2024-02-09T03:20:08.601Z,99710.00
2024-02-09T03:22:36.263Z,99719.69
2024-02-09T03:25:05.330Z,99702.59
2024-02-09T03:27:40.592Z,99713.16
2024-02-09T03:30:09.638Z,99705.19
2024-02-09T03:32:40.012Z,99701.81
2024-02-09T03:35:07.435Z,99710.00
2024-02-09T03:37:34.931Z,99701.31
2024-02-09T03:40:02.844Z,99697.75
2024-02-09T03:42:30.544Z,99692.66
2024-02-09T03:44:59.548Z,99682.91
2024-02-09T03:47:28.369Z,99692.19
2024-02-09T03:49:59.216Z,99682.91
2024-02-09T03:52:26.751Z,99687.97
2024-02-09T03:54:54.738Z,99684.09
2024-02-09T03:57:22.343Z,99675.66
2024-02-09T03:59:51.055Z,99676.41
2024-02-09T04:02:18.657Z,99673.97
2024-02-09T04:04:45.820Z,99681.59
2024-02-09T04:07:12.787Z,99681.31
2024-02-09T04:10:02.900Z,99677.59
2024-02-09T04:12:26.511Z,99682.38
2024-02-09T04:14:53.236Z,99679.94
2024-02-09T04:17:20.174Z,99670.53
2024-02-09T04:19:46.992Z,99672.50
2024-02-09T04:22:13.843Z,99663.16
2024-02-09T04:24:40.619Z,99664.03
2024-02-09T04:27:07.436Z,99656.72
2024-02-09T04:29:34.386Z,99662.06
2024-02-09T04:32:02.512Z,99652.19
2024-02-09T04:34:30.022Z,99650.72
2024-02-09T04:36:57.176Z,99657.66
2024-02-09T04:39:24.026Z,99653.94
2024-02-09T04:41:52.003Z,99649.53
2024-02-09T04:44:21.697Z,99653.34
2024-02-09T04:46:49.360Z,99642.97
2024-02-09T04:49:16.671Z,99644.63
2024-02-09T04:51:48.247Z,99646.84
2024-02-09T04:54:15.862Z,99638.31
2024-02-09T04:56:42.631Z,99642.19
2024-02-09T04:59:11.031Z,99653.34
2024-02-09T05:01:40.387Z,99646.69
2024-02-09T05:04:09.959Z,99635.91
2024-02-09T05:06:37.381Z,99631.19
2024-02-09T05:09:07.092Z,99626.41
2024-02-09T05:11:37.657Z,99625.41
2024-02-09T05:14:08.030Z,99618.56
2024-02-09T05:16:38.066Z,99607.84
2024-02-09T05:19:05.163Z,99620.63
2024-02-09T05:21:35.890Z,99621.75
2024-02-09T05:24:04.583Z,99614.31
2024-02-09T05:26:32.515Z,99630.38
2024-02-09T05:29:04.118Z,99614.06
2024-02-09T05:31:31.876Z,99628.03
2024-02-09T05:33:59.418Z,99618.28
2024-02-09T05:36:28.199Z,99612.94
2024-02-09T05:38:58.343Z,99600.34
2024-02-09T05:41:27.581Z,99602.25
2024-02-09T05:43:58.473Z,99612.13
2024-02-09T05:46:29.381Z,99603.50
2024-02-09T05:48:57.659Z,99594.84
2024-02-09T05:51:25.608Z,99597.53
2024-02-09T05:53:52.709Z,99592.34
2024-02-09T05:56:21.411Z,99592.34
2024-02-09T05:58:49.128Z,99588.22
2024-02-09T06:01:16.160Z,99584.34
2024-02-09T06:03:43.540Z,99581.75
2024-02-09T06:06:13.168Z,99571.63
2024-02-09T06:08:40.691Z,99561.03
2024-02-09T06:11:07.596Z,99577.50
2024-02-09T06:13:34.503Z,99564.50
2024-02-09T06:16:01.874Z,99562.84
2024-02-09T06:18:29.779Z,99550.84
2024-02-09T06:20:59.696Z,99557.16
2024-02-09T06:23:26.628Z,99561.53
2024-02-09T06:25:53.991Z,99556.88
2024-02-09T06:28:21.147Z,99552.66
2024-02-09T06:30:48.749Z,99537.38
2024-02-09T06:33:22.763Z,99545.75
2024-02-09T06:35:49.861Z,99548.19
2024-02-09T06:38:19.308Z,99541.78
2024-02-09T06:40:47.466Z,99532.22
2024-02-09T06:43:20.518Z,99534.22
2024-02-09T06:45:48.011Z,99525.47
2024-02-09T06:48:15.213Z,99612.41
2024-02-09T06:50:43.066Z,99630.94
2024-02-09T06:53:10.200Z,99614.28
2024-02-09T06:55:40.469Z,99624.38
2024-02-09T06:58:07.427Z,99600.47
2024-02-09T07:00:34.532Z,99615.34
2024-02-09T07:03:01.522Z,99617.28
2024-02-09T07:05:28.407Z,99602.38
2024-02-09T07:07:55.230Z,99589.69
2024-02-09T07:10:24.053Z,99597.97
2024-02-09T07:12:52.916Z,99580.81
2024-02-09T07:15:19.726Z,99573.59
2024-02-09T07:17:49.029Z,99579.00
2024-02-09T07:20:18.295Z,99570.38
2024-02-09T07:22:45.632Z,99569.25
2024-02-09T07:25:12.814Z,99560.13
2024-02-09T07:27:40.888Z,99556.16
2024-02-09T07:30:08.834Z,99559.78
2024-02-09T07:32:36.069Z,99552.44
2024-02-09T07:35:03.256Z,99552.38
2024-02-09T07:37:30.211Z,99541.91
2024-02-09T07:39:57.426Z,99537.34
2024-02-09T07:42:25.836Z,99537.44
2024-02-09T07:44:52.720Z,99531.06
2024-02-09T07:47:19.610Z,99528.38
2024-02-09T07:49:46.586Z,99537.34
2024-02-09T07:52:13.515Z,99523.91
2024-02-09T07:54:40.583Z,99524.78
2024-02-09T07:57:08.474Z,99521.09
2024-02-09T07:59:35.448Z,99519.59
2024-02-09T08:02:02.402Z,99510.28
2024-02-09T08:04:32.964Z,99504.88
2024-02-09T08:07:00.250Z,99504.28
2024-02-09T08:09:27.815Z,99502.38
2024-02-09T08:11:54.642Z,99502.53
2024-02-09T08:14:21.780Z,99497.19
2024-02-09T08:16:48.619Z,99491.06
2024-02-09T08:19:17.492Z,99497.19
2024-02-09T08:21:44.460Z,99477.44
2024-02-09T08:24:15.654Z,99475.81
2024-02-09T08:26:49.684Z,99473.03
2024-02-09T08:29:21.768Z,99466.59
2024-02-09T08:31:48.491Z,99466.84
2024-02-09T08:34:15.338Z,99461.50
2024-02-09T08:36:42.017Z,99451.66
2024-02-09T08:39:08.810Z,99446.31
2024-02-09T08:41:35.468Z,99443.41
2024-02-09T08:44:02.890Z,99437.28
2024-02-09T08:46:29.918Z,99426.59
2024-02-09T08:48:57.722Z,99426.59
2024-02-09T08:51:25.677Z,99426.00
2024-02-09T08:53:52.455Z,99417.88
2024-02-09T08:56:19.447Z,99422.38
2024-02-09T08:58:48.394Z,99403.56
2024-02-09T09:01:15.667Z,99395.81
2024-02-09T09:03:42.929Z,99403.66
2024-02-09T09:06:09.789Z,99398.38
2024-02-09T09:08:36.702Z,99390.38
2024-02-09T09:11:03.540Z,99384.78
2024-02-09T09:13:31.940Z,99387.53
2024-02-09T09:15:59.031Z,99376.94
2024-02-09T09:18:30.152Z,99375.72
2024-02-09T09:20:56.971Z,99359.69
2024-02-09T09:23:23.699Z,99369.88
2024-02-09T09:25:51.851Z,99355.63
2024-02-09T09:28:19.867Z,99362.69
2024-02-09T09:30:47.416Z,99357.88
2024-02-09T09:33:14.299Z,99353.50
2024-02-09T09:35:42.165Z,99350.88
2024-02-09T09:38:11.497Z,99331.84
2024-02-09T09:40:41.206Z,99342.03
2024-02-09T09:43:09.521Z,99334.59
2024-02-09T09:45:36.471Z,99335.63
2024-02-09T09:48:08.459Z,99326.69
2024-02-09T09:50:36.861Z,99316.78
2024-02-09T09:53:09.592Z,99323.31
2024-02-09T09:55:38.668Z,99319.69
2024-02-09T09:58:06.721Z,99317.63
2024-02-09T10:00:35.987Z,99302.00
2024-02-09T10:03:05.935Z,99310.91
2024-02-09T10:05:33.012Z,99007.13
2024-02-09T10:08:00.995Z,99014.78
2024-02-09T10:10:29.937Z,99009.44
2024-02-09T10:13:13.226Z,99000.75
2024-02-09T10:15:42.692Z,99005.31
2024-02-09T10:18:12.968Z,99003.34
2024-02-09T10:20:44.197Z,98999.88
2024-02-09T10:23:11.020Z,98978.69
2024-02-09T10:25:40.206Z,98975.16
2024-02-09T10:28:07.156Z,98977.38
2024-02-09T10:30:45.101Z,98973.25
2024-02-09T10:33:11.950Z,98934.50
2024-02-09T10:35:38.760Z,98940.25
2024-02-09T10:38:05.677Z,98932.03
2024-02-09T10:40:34.442Z,98925.84
2024-02-09T10:43:05.459Z,98910.84
2024-02-09T10:45:35.642Z,98917.50
2024-02-09T10:48:04.761Z,98908.16
2024-02-09T10:50:33.615Z,98882.13
2024-02-09T10:53:01.934Z,98882.13
2024-02-09T10:55:35.190Z,98877.91
2024-02-09T10:58:05.471Z,98863.34
2024-02-09T11:00:39.412Z,98866.56
2024-02-09T11:03:06.924Z,98855.00
2024-02-09T11:05:36.839Z,98842.31
2024-02-09T11:08:05.126Z,98837.66
2024-02-09T11:10:32.190Z,98820.00
2024-02-09T11:13:00.115Z,98825.03
2024-02-09T11:15:32.762Z,98827.47
2024-02-09T11:17:59.911Z,98579.31
2024-02-09T11:20:27.745Z,98573.72
2024-02-09T11:23:01.624Z,98567.13
2024-02-09T11:25:29.196Z,98561.47
2024-02-09T11:27:58.038Z,98555.91
2024-02-09T11:30:24.802Z,98543.16
2024-02-09T11:32:52.069Z,98537.31
2024-02-09T11:35:19.945Z,98534.50
2024-02-09T11:37:47.552Z,98525.97
2024-02-09T11:40:18.768Z,98532.47
2024-02-09T11:42:46.308Z,98489.41
2024-02-09T11:45:13.128Z,98472.50
2024-02-09T11:47:42.806Z,98463.53
2024-02-09T11:50:24.163Z,98457.75
2024-02-09T11:53:05.214Z,98445.75
2024-02-09T11:55:44.272Z,98437.31
2024-02-09T11:58:12.929Z,98443.09
2024-02-09T12:00:42.513Z,98436.59
2024-02-09T12:03:13.179Z,98437.09
2024-02-09T12:05:43.974Z,98378.47
2024-02-09T12:08:11.161Z,98375.69
2024-02-09T12:10:38.056Z,98365.22
2024-02-09T12:13:07.363Z,98365.22
2024-02-09T12:15:35.120Z,98351.53
2024-02-09T12:18:03.232Z,98355.50
2024-02-09T12:20:31.494Z,98353.22
2024-02-09T12:22:59.557Z,98344.34
2024-02-09T12:25:26.525Z,98340.69
2024-02-09T12:27:58.001Z,98333.59
2024-02-09T12:30:30.087Z,98340.84
2024-02-09T12:33:01.484Z,98339.72
2024-02-09T12:35:29.670Z,98334.63
2024-02-09T12:37:58.429Z,98337.19
2024-02-09T12:40:26.389Z,98313.22
2024-02-09T12:42:57.162Z,98317.28
2024-02-09T12:45:32.663Z,98309.03
2024-02-09T12:47:59.788Z,98297.59
2024-02-09T12:50:28.775Z,98299.81
2024-02-09T12:52:56.301Z,98301.84
2024-02-09T12:55:25.193Z,98310.72
2024-02-09T12:57:56.381Z,98299.06
2024-02-09T13:00:25.165Z,98299.94
2024-02-09T13:02:52.354Z,98300.38
2024-02-09T13:05:19.488Z,98307.19
2024-02-09T13:07:46.300Z,98299.31
2024-02-09T13:10:14.303Z,98289.56
2024-02-09T13:12:41.547Z,98283.03
2024-02-09T13:15:16.587Z,98287.31
2024-02-09T13:17:43.913Z,98282.63
2024-02-09T13:20:11.107Z,98279.63
2024-02-09T13:22:40.981Z,98284.22
2024-02-09T13:25:15.295Z,98278.97
2024-02-09T13:27:47.090Z,98271.59
2024-02-09T13:30:14.710Z,98273.78
2024-02-09T13:32:41.524Z,98266.75
2024-02-09T13:35:12.729Z,98270.16
2024-02-09T13:37:45.603Z,98273.94
2024-02-09T13:40:16.898Z,98277.69
2024-02-09T13:42:47.235Z,98271.13
2024-02-09T13:45:18.861Z,98268.44
2024-02-09T13:47:46.208Z,98268.59
2024-02-09T13:50:13.239Z,98263.72
2024-02-09T13:52:41.156Z,98268.91
2024-02-09T13:55:14.264Z,98270.16
2024-02-09T13:57:49.731Z,98262.03
2024-02-09T14:00:20.372Z,98261.31
2024-02-09T14:02:47.490Z,98255.22
2024-02-09T14:05:16.597Z,98256.44
2024-02-09T14:07:44.058Z,98262.72
2024-02-09T14:10:12.654Z,98259.84
2024-02-09T14:12:39.789Z,98269.75
2024-02-09T14:15:09.107Z,98265.63
2024-02-09T14:17:36.496Z,98263.72
2024-02-09T14:20:04.493Z,98258.88
2024-02-09T14:22:31.991Z,98260.09
2024-02-09T14:24:59.183Z,98253.16
2024-02-09T14:27:27.041Z,98248.69
2024-02-09T14:29:54.335Z,98252.94
2024-02-09T14:32:22.850Z,98258.38
2024-02-09T14:34:50.046Z,98258.16
2024-02-09T14:37:16.898Z,98250.88
2024-02-09T14:39:43.774Z,98257.66
2024-02-09T14:42:13.114Z,98259.63
2024-02-09T14:44:44.367Z,98253.28
2024-02-09T14:47:11.719Z,98261.91
2024-02-09T14:49:39.171Z,98267.00
2024-02-09T14:52:09.035Z,98263.25
2024-02-09T14:54:37.398Z,98260.94
2024-02-09T14:57:05.830Z,98262.75
2024-02-09T14:59:33.010Z,98260.09
2024-02-09T15:02:00.233Z,98263.38
2024-02-09T15:04:27.330Z,98263.25
2024-02-09T15:06:54.217Z,98266.03
2024-02-09T15:09:23.773Z,98261.56
2024-02-09T15:11:51.073Z,98259.25
2024-02-09T15:14:17.923Z,98264.47
2024-02-09T15:16:44.714Z,98265.31
2024-02-09T15:19:13.365Z,98256.00
2024-02-09T15:21:42.588Z,98259.97
2024-02-09T15:24:09.535Z,98261.91
2024-02-09T15:26:36.778Z,98250.38
2024-02-09T15:29:05.962Z,98255.00
2024-02-09T15:31:32.993Z,98250.25
2024-02-09T15:33:59.970Z,98249.66
2024-02-09T15:36:31.198Z,98249.41
2024-02-09T15:38:57.938Z,98241.88
2024-02-09T15:41:24.975Z,98251.59
2024-02-09T15:43:54.783Z,98238.97
2024-02-09T15:46:21.627Z,98243.81
2024-02-09T15:48:51.802Z,98240.41
2024-02-09T15:51:24.516Z,98244.88
2024-02-09T15:53:55.640Z,98235.78
2024-02-09T15:56:23.486Z,98242.94
2024-02-09T15:58:51.513Z,98242.69
2024-02-09T16:01:19.657Z,98238.47
2024-02-09T16:03:51.626Z,98232.25
2024-02-09T16:06:19.376Z,98229.97
2024-02-09T16:08:46.233Z,98232.75
2024-02-09T16:11:12.981Z,98229.34
2024-02-09T16:13:41.250Z,98232.97
2024-02-09T16:16:08.984Z,98220.84
2024-02-09T16:18:37.009Z,98214.03
2024-02-09T16:21:03.981Z,98209.03
2024-02-09T16:23:31.072Z,98211.47
2024-02-09T16:26:04.815Z,98214.50
2024-02-09T16:28:33.808Z,98132.81
2024-02-09T16:31:01.230Z,98125.53
2024-02-09T16:33:31.014Z,98126.16
2024-02-09T16:35:57.744Z,98128.94
2024-02-09T16:38:25.648Z,98122.75
2024-02-09T16:40:52.508Z,98119.94
2024-02-09T16:43:21.211Z,98112.78
2024-02-09T16:45:48.428Z,98121.16
2024-02-09T16:48:18.047Z,98119.09
2024-02-09T16:50:44.864Z,98116.66
2024-02-09T16:53:16.375Z,98109.38
2024-02-09T16:55:44.510Z,98118.63
2024-02-09T16:58:11.343Z,98112.06
2024-02-09T17:00:38.205Z,98106.22
2024-02-09T17:03:05.028Z,98102.81
2024-02-09T17:05:32.984Z,98109.38
2024-02-09T17:08:00.479Z,98111.31
2024-02-09T17:10:27.251Z,98097.56
2024-02-09T17:12:55.271Z,98099.25
2024-02-09T17:15:22.843Z,98100.13
2024-02-09T17:17:49.635Z,98104.28
2024-02-09T17:20:16.784Z,98097.72
2024-02-09T17:22:43.982Z,98104.50
2024-02-09T17:25:13.160Z,98088.56
2024-02-09T17:27:41.938Z,98085.41
2024-02-09T17:30:09.465Z,98089.19
2024-02-09T17:32:36.235Z,98090.75
2024-02-09T17:35:03.724Z,98087.50
2024-02-09T17:37:30.991Z,98086.78
2024-02-09T17:39:57.797Z,98092.59
2024-02-09T17:42:24.590Z,98088.47
2024-02-09T17:44:54.145Z,98080.69
2024-02-09T17:47:21.000Z,98080.69
2024-02-09T17:49:48.328Z,98074.84
2024-02-09T17:52:15.235Z,98062.94
2024-02-09T17:54:41.997Z,98048.38
2024-02-09T17:57:08.788Z,98059.88
2024-02-09T17:59:36.121Z,98064.41
2024-02-09T18:02:03.181Z,98059.28
2024-02-09T18:04:30.419Z,98055.88
2024-02-09T18:06:57.974Z,98054.66
2024-02-09T18:09:24.770Z,98056.84
2024-02-09T18:11:51.550Z,98059.28
2024-02-09T18:14:18.259Z,98053.44
2024-02-09T18:16:45.062Z,97830.13
2024-02-09T18:19:12.417Z,97823.94
2024-02-09T18:21:39.287Z,97825.13
2024-02-09T18:24:06.809Z,97811.59
2024-02-09T18:26:33.487Z,97823.03
2024-02-09T18:29:00.378Z,97821.31
2024-02-09T18:31:27.335Z,97817.41
2024-02-09T18:33:54.343Z,97819.25
2024-02-09T18:36:21.246Z,97814.44
2024-02-09T18:38:49.925Z,97815.59
2024-02-09T18:41:17.831Z,97821.13
2024-02-09T18:43:49.824Z,97813.31
2024-02-09T19:25:48.217Z,97818.13
2024-02-09T19:28:19.046Z,97813.19
2024-02-09T19:30:46.901Z,97803.28
2024-02-09T19:33:15.202Z,97801.97
2024-02-09T19:35:43.186Z,97796.28
2024-02-09T19:38:10.294Z,97802.69
2024-02-09T19:40:39.384Z,97796.47
2024-02-09T19:43:06.343Z,97795.00
2024-02-09T19:45:33.398Z,97789.75
2024-02-09T19:48:03.606Z,97782.06
2024-02-09T19:50:30.682Z,97789.56
2024-02-09T19:52:58.192Z,97787.34
2024-02-09T19:55:26.639Z,97790.16
2024-02-09T19:57:54.479Z,97781.63
2024-02-09T20:00:21.635Z,97783.31
2024-02-09T20:02:53.531Z,97789.03
2024-02-09T20:05:28.781Z,97791.38
2024-02-09T20:07:55.827Z,97791.34
2024-02-09T20:10:23.127Z,97788.22
2024-02-09T20:12:51.475Z,97799.88
2024-02-09T20:15:21.228Z,97781.09
2024-02-09T20:17:49.828Z,97776.28
2024-02-09T20:20:19.880Z,97788.41
2024-02-09T20:22:52.640Z,97794.84
2024-02-09T20:25:21.500Z,97786.28
2024-02-09T20:27:51.497Z,97783.16
2024-02-09T20:30:19.124Z,97774.31
2024-02-09T20:32:47.944Z,97774.69
2024-02-09T20:35:16.835Z,97770.22
2024-02-09T20:37:47.414Z,97773.72
2024-02-09T20:40:16.365Z,97780.09
2024-02-09T20:42:45.329Z,97789.03
2024-02-09T20:45:14.551Z,97792.63
2024-02-09T20:47:48.829Z,97796.16
2024-02-09T20:50:18.218Z,97786.56
2024-02-09T20:52:48.440Z,97766.31
2024-02-09T20:55:21.388Z,97773.44
2024-02-09T20:57:51.254Z,97778.66
2024-02-09T21:00:22.841Z,97776.97
2024-02-09T21:02:52.809Z,97788.25
2024-02-09T21:05:21.386Z,97769.84
2024-02-09T21:07:50.350Z,97756.75
2024-02-09T21:10:18.673Z,97763.91
2024-02-09T21:12:47.764Z,97758.00
2024-02-09T21:15:17.617Z,97749.28
2024-02-09T21:17:47.046Z,97734.25
2024-02-09T21:20:16.254Z,97736.59
2024-02-09T21:22:44.339Z,97765.84
2024-02-09T21:25:20.813Z,97738.72
2024-02-09T21:27:49.821Z,97746.50
2024-02-09T21:30:25.666Z,97737.16
2024-02-09T21:32:58.141Z,97741.97
2024-02-09T21:35:32.649Z,97739.97
2024-02-09T21:38:01.474Z,97739.72
2024-02-09T21:40:32.293Z,97735.50
2024-02-09T21:43:01.430Z,97729.47
2024-02-09T21:45:28.681Z,97720.59
2024-02-09T21:47:58.315Z,97726.34
2024-02-09T21:50:25.743Z,97728.09
2024-02-09T21:52:53.187Z,97728.47
2024-02-09T21:55:21.288Z,97724.53
2024-02-09T21:57:49.835Z,97721.84
2024-02-09T22:00:20.878Z,97712.97
2024-02-09T22:02:48.801Z,97720.16
2024-02-09T22:05:19.231Z,97718.75
2024-02-09T22:07:48.305Z,97724.09
2024-02-09T22:10:16.015Z,97729.72
2024-02-09T22:12:50.507Z,97727.75
2024-02-09T22:15:18.894Z,97725.50
2024-02-09T22:17:46.426Z,97730.00
2024-02-09T22:20:15.086Z,97726.88
2024-02-09T22:22:45.527Z,97724.09
2024-02-09T22:25:16.282Z,97718.91
2024-02-09T22:27:44.412Z,97714.81
2024-02-09T22:30:11.998Z,97702.69
2024-02-09T22:32:40.571Z,98305.91
2024-02-09T22:35:13.099Z,98323.41
2024-02-09T22:37:43.396Z,98312.38
2024-02-09T22:40:16.807Z,98311.00
2024-02-09T22:42:45.869Z,98314.41
2024-02-09T22:45:14.404Z,98318.94
2024-02-09T22:47:44.141Z,98314.19
2024-02-09T22:50:15.079Z,98309.78
2024-02-09T22:52:46.152Z,98316.41
2024-02-09T22:55:17.739Z,98317.00
2024-02-09T22:57:47.745Z,98296.41
2024-02-09T23:00:24.563Z,98303.72
2024-02-09T23:02:53.862Z,98304.94
2024-02-09T23:05:24.338Z,98306.66
2024-02-09T23:07:54.267Z,98300.06
2024-02-09T23:10:22.226Z,98293.13
2024-02-09T23:12:49.791Z,98294.47
2024-02-09T23:15:21.850Z,98286.56
2024-02-09T23:17:52.365Z,98280.97
2024-02-09T23:20:22.412Z,98284.38
2024-02-09T23:22:52.917Z,98289.84
2024-02-09T23:25:24.040Z,98282.91
2024-02-09T23:27:58.013Z,98288.88
2024-02-09T23:30:30.783Z,98284.63
2024-02-09T23:33:07.354Z,98286.81
2024-02-09T23:35:59.441Z,98288.38
2024-02-09T23:38:48.374Z,98285.34
